sensor_id;sensor_type;location;lat;lon;timestamp;temperature;humidity
46732;DHT22;32477;51.474;5.696;2023-11-21T00:00:10;7.30;99.90
46732;DHT22;32477;51.474;5.696;2023-11-21T00:02:38;7.30;99.90
46732;DHT22;32477;51.474;5.696;2023-11-21T00:05:10;7.40;99.90
46732;DHT22;32477;51.474;5.696;2023-11-21T00:07:39;7.30;99.90
46732;DHT22;32477;51.474;5.696;2023-11-21T00:10:05;7.30;99.90
46732;DHT22;32477;51.474;5.696;2023-11-21T00:12:32;7.30;99.90
46732;DHT22;32477;51.474;5.696;2023-11-21T00:14:59;7.30;99.90
46732;DHT22;32477;51.474;5.696;2023-11-21T00:17:24;7.30;99.90
46732;DHT22;32477;51.474;5.696;2023-11-21T00:19:50;7.30;99.90
46732;DHT22;32477;51.474;5.696;2023-11-21T00:22:17;7.30;99.90
46732;DHT22;32477;51.474;5.696;2023-11-21T00:24:44;7.40;99.90
46732;DHT22;32477;51.474;5.696;2023-11-21T00:27:09;7.40;99.90
46732;DHT22;32477;51.474;5.696;2023-11-21T00:29:35;7.40;99.90
46732;DHT22;32477;51.474;5.696;2023-11-21T00:32:01;7.40;99.90
46732;DHT22;32477;51.474;5.696;2023-11-21T00:34:27;7.40;99.90
46732;DHT22;32477;51.474;5.696;2023-11-21T00:36:53;7.50;99.90
46732;DHT22;32477;51.474;5.696;2023-11-21T00:39:18;7.50;99.90
46732;DHT22;32477;51.474;5.696;2023-11-21T00:41:44;7.50;99.90
46732;DHT22;32477;51.474;5.696;2023-11-21T00:44:13;7.50;99.90
46732;DHT22;32477;51.474;5.696;2023-11-21T00:46:39;7.40;99.90
46732;DHT22;32477;51.474;5.696;2023-11-21T00:49:05;7.40;99.90
46732;DHT22;32477;51.474;5.696;2023-11-21T00:51:30;7.40;99.90
46732;DHT22;32477;51.474;5.696;2023-11-21T00:53:56;7.40;99.90
46732;DHT22;32477;51.474;5.696;2023-11-21T00:56:22;7.30;99.90
46732;DHT22;32477;51.474;5.696;2023-11-21T00:58:49;7.30;99.90
46732;DHT22;32477;51.474;5.696;2023-11-21T01:01:18;7.20;99.90
46732;DHT22;32477;51.474;5.696;2023-11-21T01:03:46;7.10;99.90
46732;DHT22;32477;51.474;5.696;2023-11-21T01:06:12;7.10;99.90
46732;DHT22;32477;51.474;5.696;2023-11-21T01:08:37;7.00;99.90
46732;DHT22;32477;51.474;5.696;2023-11-21T01:11:03;7.00;99.90
46732;DHT22;32477;51.474;5.696;2023-11-21T01:13:30;6.90;99.90
46732;DHT22;32477;51.474;5.696;2023-11-21T01:15:56;6.90;99.90
46732;DHT22;32477;51.474;5.696;2023-11-21T01:18:21;6.80;99.90
46732;DHT22;32477;51.474;5.696;2023-11-21T01:20:47;6.80;99.90
46732;DHT22;32477;51.474;5.696;2023-11-21T01:23:13;6.80;99.90
46732;DHT22;32477;51.474;5.696;2023-11-21T01:25:39;6.80;99.90
46732;DHT22;32477;51.474;5.696;2023-11-21T01:28:05;6.80;99.90
46732;DHT22;32477;51.474;5.696;2023-11-21T01:30:31;6.80;99.90
46732;DHT22;32477;51.474;5.696;2023-11-21T01:32:58;6.70;99.90
46732;DHT22;32477;51.474;5.696;2023-11-21T01:35:24;6.70;99.90
46732;DHT22;32477;51.474;5.696;2023-11-21T01:37:49;6.70;99.90
46732;DHT22;32477;51.474;5.696;2023-11-21T01:40:15;6.70;99.90
46732;DHT22;32477;51.474;5.696;2023-11-21T01:42:42;6.70;99.90
46732;DHT22;32477;51.474;5.696;2023-11-21T01:45:10;6.70;99.90
46732;DHT22;32477;51.474;5.696;2023-11-21T01:47:36;6.70;99.90
46732;DHT22;32477;51.474;5.696;2023-11-21T01:50:03;6.80;99.90
46732;DHT22;32477;51.474;5.696;2023-11-21T01:52:37;6.80;99.90
46732;DHT22;32477;51.474;5.696;2023-11-21T01:55:04;6.80;99.90
46732;DHT22;32477;51.474;5.696;2023-11-21T01:57:31;6.80;99.90
46732;DHT22;32477;51.474;5.696;2023-11-21T01:59:58;6.90;99.90
46732;DHT22;32477;51.474;5.696;2023-11-21T02:02:43;6.90;99.90
46732;DHT22;32477;51.474;5.696;2023-11-21T02:05:10;7.00;99.90
46732;DHT22;32477;51.474;5.696;2023-11-21T02:07:38;7.00;99.90
46732;DHT22;32477;51.474;5.696;2023-11-21T02:10:06;7.00;99.90
46732;DHT22;32477;51.474;5.696;2023-11-21T02:12:31;6.90;99.90
46732;DHT22;32477;51.474;5.696;2023-11-21T02:14:57;6.90;99.90
46732;DHT22;32477;51.474;5.696;2023-11-21T02:17:23;7.00;99.90
46732;DHT22;32477;51.474;5.696;2023-11-21T02:19:48;7.00;99.90
46732;DHT22;32477;51.474;5.696;2023-11-21T02:22:17;7.00;99.90
46732;DHT22;32477;51.474;5.696;2023-11-21T02:24:45;7.00;99.90
46732;DHT22;32477;51.474;5.696;2023-11-21T02:27:13;7.00;99.90
46732;DHT22;32477;51.474;5.696;2023-11-21T02:29:42;7.10;99.90
46732;DHT22;32477;51.474;5.696;2023-11-21T02:32:08;7.10;99.90
46732;DHT22;32477;51.474;5.696;2023-11-21T02:34:36;7.10;99.90
46732;DHT22;32477;51.474;5.696;2023-11-21T02:37:01;7.10;99.90
46732;DHT22;32477;51.474;5.696;2023-11-21T02:39:27;7.20;99.90
46732;DHT22;32477;51.474;5.696;2023-11-21T02:41:53;7.20;99.90
46732;DHT22;32477;51.474;5.696;2023-11-21T02:44:18;7.20;99.90
46732;DHT22;32477;51.474;5.696;2023-11-21T02:46:44;7.20;99.90
46732;DHT22;32477;51.474;5.696;2023-11-21T02:49:10;7.30;99.90
46732;DHT22;32477;51.474;5.696;2023-11-21T02:51:36;7.30;99.90
46732;DHT22;32477;51.474;5.696;2023-11-21T02:54:03;7.30;99.90
46732;DHT22;32477;51.474;5.696;2023-11-21T02:56:32;7.20;99.90
46732;DHT22;32477;51.474;5.696;2023-11-21T02:59:01;7.20;99.90
46732;DHT22;32477;51.474;5.696;2023-11-21T03:01:27;7.20;99.90
46732;DHT22;32477;51.474;5.696;2023-11-21T03:03:53;7.20;99.90
46732;DHT22;32477;51.474;5.696;2023-11-21T03:06:19;7.20;99.90
46732;DHT22;32477;51.474;5.696;2023-11-21T03:08:45;7.20;99.90
46732;DHT22;32477;51.474;5.696;2023-11-21T03:11:12;7.20;99.90
46732;DHT22;32477;51.474;5.696;2023-11-21T03:13:39;7.20;99.90
46732;DHT22;32477;51.474;5.696;2023-11-21T03:16:08;7.10;99.90
46732;DHT22;32477;51.474;5.696;2023-11-21T03:18:34;7.10;99.90
46732;DHT22;32477;51.474;5.696;2023-11-21T03:20:59;7.10;99.90
46732;DHT22;32477;51.474;5.696;2023-11-21T03:23:25;7.10;99.90
46732;DHT22;32477;51.474;5.696;2023-11-21T03:25:50;7.10;99.90
46732;DHT22;32477;51.474;5.696;2023-11-21T03:28:16;7.10;99.90
46732;DHT22;32477;51.474;5.696;2023-11-21T03:30:42;7.10;99.90
46732;DHT22;32477;51.474;5.696;2023-11-21T03:33:07;7.10;99.90
46732;DHT22;32477;51.474;5.696;2023-11-21T03:35:33;7.10;99.90
46732;DHT22;32477;51.474;5.696;2023-11-21T03:37:59;7.10;99.90
46732;DHT22;32477;51.474;5.696;2023-11-21T03:40:24;7.10;99.90
46732;DHT22;32477;51.474;5.696;2023-11-21T03:42:50;7.10;99.90
46732;DHT22;32477;51.474;5.696;2023-11-21T03:45:16;7.10;99.90
46732;DHT22;32477;51.474;5.696;2023-11-21T03:47:42;7.00;99.90
46732;DHT22;32477;51.474;5.696;2023-11-21T03:50:08;7.00;99.90
46732;DHT22;32477;51.474;5.696;2023-11-21T03:52:37;7.00;99.90
46732;DHT22;32477;51.474;5.696;2023-11-21T03:55:03;7.00;99.90
46732;DHT22;32477;51.474;5.696;2023-11-21T03:57:28;7.00;99.90
46732;DHT22;32477;51.474;5.696;2023-11-21T03:59:54;7.00;99.90
46732;DHT22;32477;51.474;5.696;2023-11-21T04:02:20;6.90;99.90
46732;DHT22;32477;51.474;5.696;2023-11-21T04:04:45;7.00;99.90
46732;DHT22;32477;51.474;5.696;2023-11-21T04:07:11;7.00;99.90
46732;DHT22;32477;51.474;5.696;2023-11-21T04:09:39;6.90;99.90
46732;DHT22;32477;51.474;5.696;2023-11-21T04:12:05;6.90;99.90
46732;DHT22;32477;51.474;5.696;2023-11-21T04:14:31;6.90;99.90
46732;DHT22;32477;51.474;5.696;2023-11-21T04:16:57;6.90;99.90
46732;DHT22;32477;51.474;5.696;2023-11-21T04:19:22;6.90;99.90
46732;DHT22;32477;51.474;5.696;2023-11-21T04:21:48;6.90;99.90
46732;DHT22;32477;51.474;5.696;2023-11-21T04:24:14;7.00;99.90
46732;DHT22;32477;51.474;5.696;2023-11-21T04:26:39;6.90;99.90
46732;DHT22;32477;51.474;5.696;2023-11-21T04:29:05;7.00;99.90
46732;DHT22;32477;51.474;5.696;2023-11-21T04:31:31;7.00;99.90
46732;DHT22;32477;51.474;5.696;2023-11-21T04:33:57;7.00;99.90
46732;DHT22;32477;51.474;5.696;2023-11-21T04:36:23;7.00;99.90
46732;DHT22;32477;51.474;5.696;2023-11-21T04:38:48;7.00;99.90
46732;DHT22;32477;51.474;5.696;2023-11-21T04:41:14;7.00;99.90
46732;DHT22;32477;51.474;5.696;2023-11-21T04:43:40;7.00;99.90
46732;DHT22;32477;51.474;5.696;2023-11-21T04:46:05;7.00;99.90
46732;DHT22;32477;51.474;5.696;2023-11-21T04:48:32;6.90;99.90
46732;DHT22;32477;51.474;5.696;2023-11-21T04:50:58;6.90;99.90
46732;DHT22;32477;51.474;5.696;2023-11-21T04:53:26;6.90;99.90
46732;DHT22;32477;51.474;5.696;2023-11-21T04:55:55;6.90;99.90
46732;DHT22;32477;51.474;5.696;2023-11-21T04:58:21;6.90;99.90
46732;DHT22;32477;51.474;5.696;2023-11-21T05:00:47;6.90;99.90
46732;DHT22;32477;51.474;5.696;2023-11-21T05:03:12;6.90;99.90
46732;DHT22;32477;51.474;5.696;2023-11-21T05:05:38;6.90;99.90
46732;DHT22;32477;51.474;5.696;2023-11-21T05:08:04;6.90;99.90
46732;DHT22;32477;51.474;5.696;2023-11-21T05:10:30;6.90;99.90
46732;DHT22;32477;51.474;5.696;2023-11-21T05:12:56;6.90;99.90
46732;DHT22;32477;51.474;5.696;2023-11-21T05:15:22;6.90;99.90
46732;DHT22;32477;51.474;5.696;2023-11-21T05:17:48;6.90;99.90
46732;DHT22;32477;51.474;5.696;2023-11-21T05:20:15;6.90;99.90
46732;DHT22;32477;51.474;5.696;2023-11-21T05:22:47;6.90;99.90
46732;DHT22;32477;51.474;5.696;2023-11-21T05:25:14;6.80;99.90
46732;DHT22;32477;51.474;5.696;2023-11-21T05:27:39;6.80;99.90
46732;DHT22;32477;51.474;5.696;2023-11-21T05:30:06;6.90;99.90
46732;DHT22;32477;51.474;5.696;2023-11-21T05:32:32;6.80;99.90
46732;DHT22;32477;51.474;5.696;2023-11-21T05:34:58;6.80;99.90
46732;DHT22;32477;51.474;5.696;2023-11-21T05:37:24;6.80;99.90
46732;DHT22;32477;51.474;5.696;2023-11-21T05:39:54;6.80;99.90
46732;DHT22;32477;51.474;5.696;2023-11-21T05:42:22;6.80;99.90
46732;DHT22;32477;51.474;5.696;2023-11-21T05:44:48;6.80;99.90
46732;DHT22;32477;51.474;5.696;2023-11-21T05:47:14;6.80;99.90
46732;DHT22;32477;51.474;5.696;2023-11-21T05:49:40;6.90;99.90
46732;DHT22;32477;51.474;5.696;2023-11-21T05:52:06;6.90;99.90
46732;DHT22;32477;51.474;5.696;2023-11-21T05:54:32;6.90;99.90
46732;DHT22;32477;51.474;5.696;2023-11-21T05:56:58;6.80;99.90
46732;DHT22;32477;51.474;5.696;2023-11-21T05:59:23;6.80;99.90
46732;DHT22;32477;51.474;5.696;2023-11-21T06:01:49;6.80;99.90
46732;DHT22;32477;51.474;5.696;2023-11-21T06:04:15;6.80;99.90
46732;DHT22;32477;51.474;5.696;2023-11-21T06:06:40;6.80;99.90
46732;DHT22;32477;51.474;5.696;2023-11-21T06:09:06;6.80;99.90
46732;DHT22;32477;51.474;5.696;2023-11-21T06:11:35;6.80;99.90
46732;DHT22;32477;51.474;5.696;2023-11-21T06:14:00;6.80;99.90
46732;DHT22;32477;51.474;5.696;2023-11-21T06:16:26;6.80;99.90
46732;DHT22;32477;51.474;5.696;2023-11-21T06:18:53;6.80;99.90
46732;DHT22;32477;51.474;5.696;2023-11-21T06:21:19;6.80;99.90
46732;DHT22;32477;51.474;5.696;2023-11-21T06:23:44;6.80;99.90
46732;DHT22;32477;51.474;5.696;2023-11-21T06:26:10;6.80;99.90
46732;DHT22;32477;51.474;5.696;2023-11-21T06:28:36;6.80;99.90
46732;DHT22;32477;51.474;5.696;2023-11-21T06:31:02;6.90;99.90
46732;DHT22;32477;51.474;5.696;2023-11-21T06:33:33;6.90;99.90
46732;DHT22;32477;51.474;5.696;2023-11-21T06:36:00;6.90;99.90
46732;DHT22;32477;51.474;5.696;2023-11-21T06:38:28;6.90;99.90
46732;DHT22;32477;51.474;5.696;2023-11-21T06:40:56;6.90;99.90
46732;DHT22;32477;51.474;5.696;2023-11-21T06:43:23;6.90;99.90
46732;DHT22;32477;51.474;5.696;2023-11-21T06:45:49;7.00;99.90
46732;DHT22;32477;51.474;5.696;2023-11-21T06:48:15;7.00;99.90
46732;DHT22;32477;51.474;5.696;2023-11-21T06:50:40;7.00;99.90
46732;DHT22;32477;51.474;5.696;2023-11-21T06:53:07;7.00;99.90
46732;DHT22;32477;51.474;5.696;2023-11-21T06:55:33;7.00;99.90
46732;DHT22;32477;51.474;5.696;2023-11-21T06:57:59;7.10;99.90
46732;DHT22;32477;51.474;5.696;2023-11-21T07:00:26;7.10;99.90
46732;DHT22;32477;51.474;5.696;2023-11-21T07:02:54;7.00;99.90
46732;DHT22;32477;51.474;5.696;2023-11-21T07:05:21;7.10;99.90
46732;DHT22;32477;51.474;5.696;2023-11-21T07:07:48;7.10;99.90
46732;DHT22;32477;51.474;5.696;2023-11-21T07:10:14;7.20;99.90
46732;DHT22;32477;51.474;5.696;2023-11-21T07:12:40;7.20;99.90
46732;DHT22;32477;51.474;5.696;2023-11-21T07:15:07;7.20;99.90
46732;DHT22;32477;51.474;5.696;2023-11-21T07:17:35;7.20;99.90
46732;DHT22;32477;51.474;5.696;2023-11-21T07:20:01;7.30;99.90
46732;DHT22;32477;51.474;5.696;2023-11-21T07:22:27;7.30;99.90
46732;DHT22;32477;51.474;5.696;2023-11-21T07:24:53;7.30;99.90
46732;DHT22;32477;51.474;5.696;2023-11-21T07:27:18;7.30;99.90
46732;DHT22;32477;51.474;5.696;2023-11-21T07:29:45;7.30;99.90
46732;DHT22;32477;51.474;5.696;2023-11-21T07:32:10;7.30;99.90
46732;DHT22;32477;51.474;5.696;2023-11-21T07:34:37;7.30;99.90
46732;DHT22;32477;51.474;5.696;2023-11-21T07:37:03;7.40;99.90
46732;DHT22;32477;51.474;5.696;2023-11-21T07:39:29;7.40;99.90
46732;DHT22;32477;51.474;5.696;2023-11-21T07:41:55;7.40;99.90
46732;DHT22;32477;51.474;5.696;2023-11-21T07:44:23;7.40;99.90
46732;DHT22;32477;51.474;5.696;2023-11-21T07:46:49;7.40;99.90
46732;DHT22;32477;51.474;5.696;2023-11-21T07:49:17;7.40;99.90
46732;DHT22;32477;51.474;5.696;2023-11-21T07:51:46;7.50;99.90
46732;DHT22;32477;51.474;5.696;2023-11-21T07:54:11;7.50;99.90
46732;DHT22;32477;51.474;5.696;2023-11-21T07:56:37;7.50;99.90
46732;DHT22;32477;51.474;5.696;2023-11-21T07:59:03;7.50;99.90
46732;DHT22;32477;51.474;5.696;2023-11-21T08:01:29;7.60;99.90
46732;DHT22;32477;51.474;5.696;2023-11-21T08:03:55;7.60;99.90
46732;DHT22;32477;51.474;5.696;2023-11-21T08:06:24;7.60;99.90
46732;DHT22;32477;51.474;5.696;2023-11-21T08:08:51;7.70;99.90
46732;DHT22;32477;51.474;5.696;2023-11-21T08:11:17;7.70;99.90
46732;DHT22;32477;51.474;5.696;2023-11-21T08:13:42;7.70;99.90
46732;DHT22;32477;51.474;5.696;2023-11-21T08:16:08;7.70;99.90
46732;DHT22;32477;51.474;5.696;2023-11-21T08:18:34;7.70;99.90
46732;DHT22;32477;51.474;5.696;2023-11-21T08:21:00;7.80;99.90
46732;DHT22;32477;51.474;5.696;2023-11-21T08:23:26;7.80;99.90
46732;DHT22;32477;51.474;5.696;2023-11-21T08:25:52;7.80;99.90
46732;DHT22;32477;51.474;5.696;2023-11-21T08:28:19;7.80;99.90
46732;DHT22;32477;51.474;5.696;2023-11-21T08:30:45;7.80;99.90
46732;DHT22;32477;51.474;5.696;2023-11-21T08:33:10;7.80;99.90
46732;DHT22;32477;51.474;5.696;2023-11-21T08:35:39;7.90;99.90
46732;DHT22;32477;51.474;5.696;2023-11-21T08:38:04;7.90;99.90
46732;DHT22;32477;51.474;5.696;2023-11-21T08:40:30;7.90;99.90
46732;DHT22;32477;51.474;5.696;2023-11-21T08:42:56;8.00;99.90
46732;DHT22;32477;51.474;5.696;2023-11-21T08:45:24;8.00;99.90
46732;DHT22;32477;51.474;5.696;2023-11-21T08:47:53;8.10;99.90
46732;DHT22;32477;51.474;5.696;2023-11-21T08:50:19;8.10;99.90
46732;DHT22;32477;51.474;5.696;2023-11-21T08:52:46;8.10;99.90
46732;DHT22;32477;51.474;5.696;2023-11-21T08:55:11;8.20;99.90
46732;DHT22;32477;51.474;5.696;2023-11-21T08:57:39;8.30;99.90
46732;DHT22;32477;51.474;5.696;2023-11-21T09:00:07;8.30;99.90
46732;DHT22;32477;51.474;5.696;2023-11-21T09:02:50;8.30;99.90
46732;DHT22;32477;51.474;5.696;2023-11-21T09:05:17;8.30;99.90
46732;DHT22;32477;51.474;5.696;2023-11-21T09:07:44;8.30;99.90
46732;DHT22;32477;51.474;5.696;2023-11-21T09:10:13;8.30;99.90
46732;DHT22;32477;51.474;5.696;2023-11-21T09:12:39;8.30;99.90
46732;DHT22;32477;51.474;5.696;2023-11-21T09:15:05;8.30;99.90
46732;DHT22;32477;51.474;5.696;2023-11-21T09:17:34;8.30;99.90
46732;DHT22;32477;51.474;5.696;2023-11-21T09:20:00;8.30;99.90
46732;DHT22;32477;51.474;5.696;2023-11-21T09:22:26;8.30;99.90
46732;DHT22;32477;51.474;5.696;2023-11-21T09:24:52;8.30;99.90
46732;DHT22;32477;51.474;5.696;2023-11-21T09:27:19;8.30;99.90
46732;DHT22;32477;51.474;5.696;2023-11-21T09:29:44;8.40;99.90
46732;DHT22;32477;51.474;5.696;2023-11-21T09:32:13;8.40;99.90
46732;DHT22;32477;51.474;5.696;2023-11-21T09:34:42;8.50;99.90
46732;DHT22;32477;51.474;5.696;2023-11-21T09:37:08;8.50;99.90
46732;DHT22;32477;51.474;5.696;2023-11-21T09:39:35;8.60;99.90
46732;DHT22;32477;51.474;5.696;2023-11-21T09:42:13;8.70;99.90
46732;DHT22;32477;51.474;5.696;2023-11-21T09:47:27;8.70;99.90
46732;DHT22;32477;51.474;5.696;2023-11-21T09:49:54;8.70;99.90
46732;DHT22;32477;51.474;5.696;2023-11-21T09:52:26;8.80;99.90
46732;DHT22;32477;51.474;5.696;2023-11-21T09:54:53;8.80;99.90
46732;DHT22;32477;51.474;5.696;2023-11-21T09:57:20;8.80;99.90
46732;DHT22;32477;51.474;5.696;2023-11-21T09:59:53;9.00;99.90
46732;DHT22;32477;51.474;5.696;2023-11-21T10:02:27;9.00;99.90
46732;DHT22;32477;51.474;5.696;2023-11-21T10:04:55;9.20;99.90
46732;DHT22;32477;51.474;5.696;2023-11-21T10:07:22;9.20;99.90
46732;DHT22;32477;51.474;5.696;2023-11-21T10:09:51;9.30;99.90
46732;DHT22;32477;51.474;5.696;2023-11-21T10:12:49;9.40;99.90
46732;DHT22;32477;51.474;5.696;2023-11-21T10:15:15;9.40;99.90
46732;DHT22;32477;51.474;5.696;2023-11-21T10:17:43;9.50;99.90
46732;DHT22;32477;51.474;5.696;2023-11-21T10:20:14;9.50;99.90
46732;DHT22;32477;51.474;5.696;2023-11-21T10:22:41;9.50;99.90
46732;DHT22;32477;51.474;5.696;2023-11-21T10:25:09;9.60;99.90
46732;DHT22;32477;51.474;5.696;2023-11-21T10:27:41;9.60;99.90
46732;DHT22;32477;51.474;5.696;2023-11-21T10:30:07;9.60;99.90
46732;DHT22;32477;51.474;5.696;2023-11-21T10:32:40;9.60;99.90
46732;DHT22;32477;51.474;5.696;2023-11-21T10:35:15;9.70;99.90
46732;DHT22;32477;51.474;5.696;2023-11-21T10:37:41;9.80;99.90
46732;DHT22;32477;51.474;5.696;2023-11-21T10:40:12;9.80;99.90
46732;DHT22;32477;51.474;5.696;2023-11-21T10:42:41;9.90;99.90
46732;DHT22;32477;51.474;5.696;2023-11-21T10:45:10;9.90;99.90
46732;DHT22;32477;51.474;5.696;2023-11-21T10:47:43;10.00;99.90
46732;DHT22;32477;51.474;5.696;2023-11-21T10:50:09;9.80;99.90
46732;DHT22;32477;51.474;5.696;2023-11-21T10:52:40;9.70;99.90
46732;DHT22;32477;51.474;5.696;2023-11-21T10:55:18;9.70;99.90
46732;DHT22;32477;51.474;5.696;2023-11-21T10:57:52;9.70;99.90
46732;DHT22;32477;51.474;5.696;2023-11-21T11:00:19;9.90;99.90
46732;DHT22;32477;51.474;5.696;2023-11-21T11:02:54;10.10;99.90
46732;DHT22;32477;51.474;5.696;2023-11-21T11:05:22;10.20;99.90
46732;DHT22;32477;51.474;5.696;2023-11-21T11:07:58;10.20;99.90
46732;DHT22;32477;51.474;5.696;2023-11-21T11:10:27;10.10;99.90
46732;DHT22;32477;51.474;5.696;2023-11-21T11:12:55;10.10;99.90
46732;DHT22;32477;51.474;5.696;2023-11-21T11:15:23;10.10;99.90
46732;DHT22;32477;51.474;5.696;2023-11-21T11:17:49;10.10;99.90
46732;DHT22;32477;51.474;5.696;2023-11-21T11:20:27;10.10;99.90
46732;DHT22;32477;51.474;5.696;2023-11-21T11:25:47;10.20;99.90
46732;DHT22;32477;51.474;5.696;2023-11-21T11:28:29;10.20;99.90
46732;DHT22;32477;51.474;5.696;2023-11-21T11:31:14;10.20;99.90
46732;DHT22;32477;51.474;5.696;2023-11-21T11:33:59;10.30;99.90
46732;DHT22;32477;51.474;5.696;2023-11-21T11:36:35;10.40;99.90
46732;DHT22;32477;51.474;5.696;2023-11-21T11:39:02;10.40;99.90
46732;DHT22;32477;51.474;5.696;2023-11-21T11:41:31;10.30;99.90
46732;DHT22;32477;51.474;5.696;2023-11-21T11:44:00;10.30;99.90
46732;DHT22;32477;51.474;5.696;2023-11-21T11:47:01;10.30;99.90
46732;DHT22;32477;51.474;5.696;2023-11-21T11:49:28;10.20;99.90
46732;DHT22;32477;51.474;5.696;2023-11-21T11:52:41;10.20;99.90
46732;DHT22;32477;51.474;5.696;2023-11-21T11:55:13;10.20;99.90
46732;DHT22;32477;51.474;5.696;2023-11-21T11:57:42;10.20;99.90
46732;DHT22;32477;51.474;5.696;2023-11-21T12:02:47;10.20;99.90
46732;DHT22;32477;51.474;5.696;2023-11-21T12:05:15;10.20;99.90
46732;DHT22;32477;51.474;5.696;2023-11-21T12:07:53;10.30;99.90
46732;DHT22;32477;51.474;5.696;2023-11-21T12:10:25;10.40;99.90
46732;DHT22;32477;51.474;5.696;2023-11-21T12:12:52;10.40;99.90
46732;DHT22;32477;51.474;5.696;2023-11-21T12:15:19;10.50;99.90
46732;DHT22;32477;51.474;5.696;2023-11-21T12:17:45;10.40;99.90
46732;DHT22;32477;51.474;5.696;2023-11-21T12:20:13;10.40;99.90
46732;DHT22;32477;51.474;5.696;2023-11-21T12:27:45;10.20;99.90
46732;DHT22;32477;51.474;5.696;2023-11-21T12:30:12;10.20;99.90
46732;DHT22;32477;51.474;5.696;2023-11-21T12:32:49;10.10;99.90
46732;DHT22;32477;51.474;5.696;2023-11-21T12:35:16;10.10;99.90
46732;DHT22;32477;51.474;5.696;2023-11-21T12:37:45;10.10;99.90
46732;DHT22;32477;51.474;5.696;2023-11-21T12:40:12;10.10;99.90
46732;DHT22;32477;51.474;5.696;2023-11-21T12:42:47;10.10;99.90
46732;DHT22;32477;51.474;5.696;2023-11-21T12:47:50;10.10;99.90
46732;DHT22;32477;51.474;5.696;2023-11-21T12:50:19;10.10;99.90
46732;DHT22;32477;51.474;5.696;2023-11-21T12:52:52;10.10;99.90
46732;DHT22;32477;51.474;5.696;2023-11-21T12:55:23;10.10;99.90
46732;DHT22;32477;51.474;5.696;2023-11-21T12:57:53;10.20;99.90
46732;DHT22;32477;51.474;5.696;2023-11-21T13:00:33;10.20;99.90
46732;DHT22;32477;51.474;5.696;2023-11-21T13:03:10;10.20;99.90
46732;DHT22;32477;51.474;5.696;2023-11-21T13:05:43;10.20;99.90
46732;DHT22;32477;51.474;5.696;2023-11-21T13:08:11;10.20;99.90
46732;DHT22;32477;51.474;5.696;2023-11-21T13:10:40;10.10;99.90
46732;DHT22;32477;51.474;5.696;2023-11-21T13:13:17;10.20;99.90
46732;DHT22;32477;51.474;5.696;2023-11-21T13:15:51;10.20;99.90
46732;DHT22;32477;51.474;5.696;2023-11-21T13:18:18;10.10;99.90
46732;DHT22;32477;51.474;5.696;2023-11-21T13:20:47;10.20;99.90
46732;DHT22;32477;51.474;5.696;2023-11-21T13:23:13;10.10;99.90
46732;DHT22;32477;51.474;5.696;2023-11-21T13:25:42;10.20;99.90
46732;DHT22;32477;51.474;5.696;2023-11-21T13:28:08;10.20;99.90
46732;DHT22;32477;51.474;5.696;2023-11-21T13:30:37;10.20;99.90
46732;DHT22;32477;51.474;5.696;2023-11-21T13:33:08;10.20;99.90
46732;DHT22;32477;51.474;5.696;2023-11-21T13:35:42;10.20;99.90
46732;DHT22;32477;51.474;5.696;2023-11-21T13:38:15;10.20;99.90
46732;DHT22;32477;51.474;5.696;2023-11-21T13:40:52;10.20;99.90
46732;DHT22;32477;51.474;5.696;2023-11-21T13:43:23;10.20;99.90
46732;DHT22;32477;51.474;5.696;2023-11-21T13:45:52;10.20;99.90
46732;DHT22;32477;51.474;5.696;2023-11-21T13:48:30;10.20;99.90
46732;DHT22;32477;51.474;5.696;2023-11-21T13:51:11;10.10;99.90
46732;DHT22;32477;51.474;5.696;2023-11-21T13:53:47;10.10;99.90
46732;DHT22;32477;51.474;5.696;2023-11-21T13:56:15;10.10;99.90
46732;DHT22;32477;51.474;5.696;2023-11-21T13:58:49;10.10;99.90
46732;DHT22;32477;51.474;5.696;2023-11-21T14:01:20;10.10;99.90
46732;DHT22;32477;51.474;5.696;2023-11-21T14:04:09;10.10;99.90
46732;DHT22;32477;51.474;5.696;2023-11-21T14:06:35;10.10;99.90
46732;DHT22;32477;51.474;5.696;2023-11-21T14:09:14;10.20;99.90
46732;DHT22;32477;51.474;5.696;2023-11-21T14:14:22;10.20;99.90
46732;DHT22;32477;51.474;5.696;2023-11-21T14:16:50;10.20;99.90
46732;DHT22;32477;51.474;5.696;2023-11-21T14:19:17;10.30;99.90
46732;DHT22;32477;51.474;5.696;2023-11-21T14:21:44;10.30;99.90
46732;DHT22;32477;51.474;5.696;2023-11-21T14:24:11;10.30;99.90
46732;DHT22;32477;51.474;5.696;2023-11-21T14:26:45;10.20;99.90
46732;DHT22;32477;51.474;5.696;2023-11-21T14:29:12;10.20;99.90
46732;DHT22;32477;51.474;5.696;2023-11-21T14:31:40;10.20;99.90
46732;DHT22;32477;51.474;5.696;2023-11-21T14:34:07;10.20;99.90
46732;DHT22;32477;51.474;5.696;2023-11-21T14:36:33;10.20;99.90
46732;DHT22;32477;51.474;5.696;2023-11-21T14:38:59;10.20;99.90
46732;DHT22;32477;51.474;5.696;2023-11-21T14:41:29;10.20;99.90
46732;DHT22;32477;51.474;5.696;2023-11-21T14:43:55;10.20;99.90
46732;DHT22;32477;51.474;5.696;2023-11-21T14:46:22;10.20;99.90
46732;DHT22;32477;51.474;5.696;2023-11-21T14:48:48;10.30;99.90
46732;DHT22;32477;51.474;5.696;2023-11-21T14:51:25;10.30;99.90
46732;DHT22;32477;51.474;5.696;2023-11-21T14:54:01;10.30;99.90
46732;DHT22;32477;51.474;5.696;2023-11-21T14:56:33;10.30;99.90
46732;DHT22;32477;51.474;5.696;2023-11-21T14:59:06;10.20;99.90
46732;DHT22;32477;51.474;5.696;2023-11-21T15:01:34;10.20;99.90
46732;DHT22;32477;51.474;5.696;2023-11-21T15:04:21;10.10;99.90
46732;DHT22;32477;51.474;5.696;2023-11-21T15:07:04;10.10;99.90
46732;DHT22;32477;51.474;5.696;2023-11-21T15:09:30;10.10;99.90
46732;DHT22;32477;51.474;5.696;2023-11-21T15:12:07;10.00;99.90
46732;DHT22;32477;51.474;5.696;2023-11-21T15:14:52;9.90;99.90
46732;DHT22;32477;51.474;5.696;2023-11-21T15:17:20;9.90;99.90
46732;DHT22;32477;51.474;5.696;2023-11-21T15:19:49;9.80;99.90
46732;DHT22;32477;51.474;5.696;2023-11-21T15:22:15;9.80;99.90
46732;DHT22;32477;51.474;5.696;2023-11-21T15:24:42;9.80;99.90
46732;DHT22;32477;51.474;5.696;2023-11-21T15:27:10;9.80;99.90
46732;DHT22;32477;51.474;5.696;2023-11-21T15:29:37;9.80;99.90
46732;DHT22;32477;51.474;5.696;2023-11-21T15:32:05;9.70;99.90
46732;DHT22;32477;51.474;5.696;2023-11-21T15:34:32;9.80;99.90
46732;DHT22;32477;51.474;5.696;2023-11-21T15:36:58;9.80;99.90
46732;DHT22;32477;51.474;5.696;2023-11-21T15:39:23;9.70;99.90
46732;DHT22;32477;51.474;5.696;2023-11-21T15:41:54;9.80;99.90
46732;DHT22;32477;51.474;5.696;2023-11-21T15:44:20;9.80;99.90
46732;DHT22;32477;51.474;5.696;2023-11-21T15:46:45;9.70;99.90
46732;DHT22;32477;51.474;5.696;2023-11-21T15:49:11;9.70;99.90
46732;DHT22;32477;51.474;5.696;2023-11-21T15:51:43;9.70;99.90
46732;DHT22;32477;51.474;5.696;2023-11-21T15:54:18;9.80;99.90
46732;DHT22;32477;51.474;5.696;2023-11-21T15:56:45;9.70;99.90
46732;DHT22;32477;51.474;5.696;2023-11-21T15:59:11;9.70;99.90
46732;DHT22;32477;51.474;5.696;2023-11-21T16:01:37;9.70;99.90
46732;DHT22;32477;51.474;5.696;2023-11-21T16:04:12;9.70;99.90
46732;DHT22;32477;51.474;5.696;2023-11-21T16:06:42;9.60;99.90